SEBI

Registration No.

INH000000305

Ip Address Lookup

So far visitors:

customizable counter

TRIAL

TRIAL

SEND SMS FOR TRIAL

EQUITY - COMMODITY OR BOTH

TO

 09920033678

AND GET TRIAL

 


Information: COPPER (MCX): LOT SIZE CHANGED TO 2500 from 1000 (from JUL CONTRACT)

SEBI Registration No.: INH000000305 *****

* Commodity: 9500/month * Equity: 6000/month


* Gold Package: 7000 * Gold-Silver Package: 8100
*Crude-NG-Copper-Nickel Package: 6000


To See Past Performance, Click Here

For TRIAL / Registration,

click here

Past Performance >> Equity Tips
 
Search
 
Entry Start Date Entry End Date
Exit Start Date Exit End Date
Scrip Name Contract
Package
 

Packages: Precious Metals - Energy and Base Metals - Profit is calculated on basis of 1 lot per call

Package: Equity calls: Profit is calculated as follows:

1. If the scrip is in F & O then 1 lot is counted otherwise

2. Trade of Rs.1,50,000/- per call is counted.

 
Page: ( 1 2 3 4 5 6 7 8 9 10 11 12 13 14 15 16 17 18 19 20 21 22 23 24 25 26 27 28 29 30 31 32 33 34 35 36 37 38 39 40 41 42 43 44 45 46 47 48 49 50 51 52 53 54 55 56 57 58 59 60 61 62 63 64 65 66 67 68 69 70 71 72 73 74 75 76 77 78 79 80 81 82 83 84 85 86 87 88 89 90 91 92 93 94 95 96 97 98 99 100 101 102 103 104 105 106 107 108 109 110 111 112 113 114 ) [Current Page: 108]
Displaying 8026 to 8100   Calls
Entry Date Type Scrip Entry Price (Rs) T1
(Rs)
T2
(Rs)
T3
(Rs)
Stop Loss
(Rs)
Exit Date Exit Rate
(Rs)
Profit
(Rs)
 
17-02-11 Buy SAIL 163 171 --- --- 158 17-02-11 167.80 4800.00 More
16-02-11 Buy Unitech 35.20 37 39 --- 33 16-02-11 38 11200.00 More
16-02-11 Buy BANK NIFTY 10991 11050 11100 11200 10900 17-02-11 11015 600.00 More
16-02-11 Sell NIFTY 5485 5470 5455 5435 5510 16-02-11 5470 750.00 More
16-02-11 Buy RELIANCE 941 950 955 958 927 16-02-11 951 2500.00 More
16-02-11 Buy LICHSGFIN 192 200 205 210 185 16-02-11 197 6250.00 More
15-02-11 Buy Ambuja Cement 119.55 123 128 132 117 16-02-11 122 4900.00 More
15-02-11 Buy 462.50 470 478 485 453 15-02-11 453 -4750.00 More
14-02-11 Buy GVK Power 28.50 31 33 35 24.50 15-02-11 29.45 7600.00 More
14-02-11 Buy ABB 655 665 675 685 648 17-02-11 674 4750.00 More
11-02-11 Sell NIFTY 5220 5200 5180 --- 5244 11-02-11 5182 1900.00 More
11-02-11 Sell GRASIM 2240 2220 2200 2180 2270 11-02-11 2203 4625.00 More
11-02-11 Buy PNB MARCH 120 CALL 272.65 275 278 --- 268 15-02-11 276.30 3650.00 More
10-02-11 Sell ACC 928 915 905 900 945 10-02-11 945 -4250.00 More
09-02-11 Buy FinanTech 749 757 765 772 734 09-02-11 757 2000.00 More
09-02-11 Sell Bhushan Steel 375 362 352 344 402 09-02-11 375 0.00 More
08-02-11 Sell Central Bank 156 150 145 140 166 10-02-11 140 16000.00 More
08-02-11 Buy BANK NIFTY 10423 10475 10550 10600 10350 08-02-11 10350 -1825.00 More
08-02-11 Buy NIFTY 5405 5425 5441 5470 5365 08-02-11 5365 -2000.00 More
07-02-11 Buy BANK NIFTY 10400 10450 10500 10550 10350 07-02-11 10500 2500.00 More
07-02-11 Sell ACC 982 970 960 950 1010 07-02-11 960 5500.00 More
07-02-11 Sell M&M 675 660 650 640 705 11-02-11 640 8750.00 More
04-02-11 Sell ACC 963 950 930 920 990 04-02-11 990 -6750.00 More
03-02-11 Buy Orchid Chem 294.50 300 304 308 287 04-02-11 306 23000.00 More
03-02-11 Buy HDIL 133 138 142 145 126 04-02-11 142 9000.00 More
03-02-11 Buy Astra Micro 47 50 54 --- 42 04-02-11 46 -2130.00 More
03-02-11 Buy HCC 36.75 40 44 48 34 04-02-11 37 1000.00 More
02-02-11 Buy PNB MARCH 120 CALL 275 280 285 290 271 03-02-11 282 7000.00 More
02-02-11 Buy Above HINDALCO 234 237 240 243 230 03-02-11 241.90 15800.00 More
01-02-11 Buy Hind Oil Exploration 189 193 195 197 185 01-02-11 185 -4000.00 More
01-02-11 Buy DR REDDY 1630 1650 1670 1690 1615 01-02-11 1615 -3750.00 More
01-02-11 Buy Central Bank 174.50 178 182 185 170 01-02-11 170 -4500.00 More
01-02-11 Buy TITAN 3625 3660 3690 3720 3600 01-02-11 3600 -3125.00 More
01-02-11 Buy Above Shrenuj 46.50 53 55 57 39 01-02-11 47 1075.00 More
31-01-11 Buy HINDALCO 227 233 235 240 217 01-02-11 233 12000.00 More
31-01-11 Buy Punj Lloyd 94.75 100 105 110 92.50 01-02-11 92.50 -4500.00 More
31-01-11 Sell JINDAL STEEL 652 645 635 620 678 31-01-11 665.45 -6725.00 More
31-01-11 Sell 322 315 307 --- 338 31-01-11 313.10 8900.00 More
31-01-11 Sell Ranbaxy 535 525 515 --- 545 31-01-11 529.50 2750.00 More
28-01-11 Sell JINDAL STEEL 669 661 655 650 692 28-01-11 659.20 4900.00 More
28-01-11 Sell 330 322 316 310 335 28-01-11 323.75 6250.00 More
27-01-11 Buy NIFTY 5674 5690 5705 5720 5650 27-01-11 5650 -1200.00 More
27-01-11 Buy Camlin 62.60 67 72 78 52 27-01-11 66.85 6800.00 More
27-01-11 Buy VOLTAS 218.50 220 222 224 212 27-01-11 212 -6500.00 More
25-01-11 Sell BANK NIFTY 11000 10925 10850 10800 11130 25-01-11 10862.35 3441.25 More
25-01-11 Buy NIFTY 5759 5775 5790 5810 5735 25-01-11 5795.80 1840.00 More
25-01-11 Buy Educomp 521 528 535 545 510 25-01-11 528.50 3750.00 More
25-01-11 Buy KSK Energy 115 121 130 135 107 25-01-11 116.50 1305.00 More
25-01-11 Buy IDBI 154 158 162 168 150 25-01-11 155.50 3000.00 More
24-01-11 Buy Orchid Chem 317.40 324 329 335 306 28-01-11 306 -22800.00 More
24-01-11 Buy ARVIND 64.20 67 69 74 59.50 25-01-11 67.85 5694.00 More
24-01-11 Buy ICICI BANK 1071 1078 1085 1090 1058 24-01-11 1091 5000.00 More
24-01-11 Buy BOI 468.50 475 480 485 455 24-01-11 473.90 2700.00 More
24-01-11 Buy ADANI ENT 638.50 645 650 655 630 25-01-11 642.40 1950.00 More
24-01-11 Sell BANK NIFTY 10960 10900 10850 10800 11110 24-01-11 11110 -3750.00 More
24-01-11 Sell PNB 1115 1107 1100 1089 1123 24-01-11 1103.20 2950.00 More
24-01-11 Buy MCLeod Russel 216.50 225 230 235 212 25-01-11 219.05 2550.00 More
21-01-11 Sell BANK NIFTY 10875 10800 10750 10725 10950 21-01-11 10800 1875.00 More
21-01-11 Sell NIFTY 5696 5676 5660 5640 5720 21-01-11 5665 1550.00 More
21-01-11 Buy INDUSIND BANK 239 244 246 248 236 21-01-11 236 -3000.00 More
21-01-11 Sell Below ONGC 1120 1110 1100 1090 1132 21-01-11 1105.10 3725.00 More
21-01-11 Buy Central Bank 172 177 181 --- 167 25-01-11 181 9000.00 More
20-01-11 Sell Below ONGC 1148 1138 1130 1120 1165 20-01-11 1124 6000.00 More
20-01-11 Buy YES BANK 271.90 277 285 290 265 24-01-11 285 13100.00 More
20-01-11 Buy Opto Circuit 257.50 268 275 280 245 20-01-11 270.95 13450.00 More
20-01-11 Sell SBI 2478 2465 2450 2430 2505 20-01-11 2483 -625.00 More
20-01-11 Sell ABB 725 710 700 690 740 20-01-11 740 -3750.00 More
19-01-11 Sell ICICI BANK 1031 1023 1017 1009 1038 19-01-11 1018.95 3012.50 More
19-01-11 Buy Jupiter Bio 35.50 37 39 41 31.50 20-01-11 34 -4230.00 More
19-01-11 Buy CIPLA 356.50 365 370 375 350 19-01-11 350 -6500.00 More
18-01-11 Sell ICICI BANK 1022 1013 1008 1002 1032 18-01-11 1002.20 4950.00 More
18-01-11 Buy SIEMENS 739 745 750 756 734 18-01-11 746 3500.00 More
18-01-11 Buy Gitanjali Gems 207.50 215 218 221 195 18-01-11 216.80 4371.00 More
18-01-11 Buy Essar Oil 130.25 133 135 --- 127 18-01-11 127 -6500.00 More
18-01-11 Buy TV-18 74 78 82 86 71 27-01-11 80.85 27400.00 More
Page wise profit 205703.75 Rs
Profit 27428035.50 Rs
TRIAL

TRIAL

SEND SMS FOR TRIAL

EQUITY - COMMODITY OR BOTH

TO

 09920033678

AND GET TRIAL